Time;durP1;ratioP1;P1;durP2;ratioP2;P2;SDS_P1;SDS_P2;PMS_P1;PMS_P2;Temp;Humidity;BMP_temperature;BMP_pressure;BME280_temperature;BME280_humidity;BME280_pressure;Samples;Min_cycle;Max_cycle;Signal;HPM_P1;HPM_P2
2023/03/11 00:00:18;;;;;;;;;;;;;;;10.06;67.31;97436.63;5094263;28;19965;-63
2023/03/11 00:02:49;;;;;;;;;;;;;;;10.05;66.03;97442.63;5094416;28;20413;-63
2023/03/11 00:05:19;;;;;;;;;;;;;;;10.02;66.50;97438.47;5094449;28;20022;-63
2023/03/11 00:07:48;;;;;;;;;;;;;;;10.03;65.87;97439.28;5094243;28;19973;-64
2023/03/11 00:10:17;;;;;;;;;;;;;;;10.02;64.98;97429.97;5094208;28;20015;-63
2023/03/11 00:12:45;;;;;;;;;;;;;;;10.02;64.96;97412.16;5094121;28;20373;-64
2023/03/11 00:15:14;;;;;;;;;;;;;;;10.01;64.95;97425.75;5093427;28;19920;-64
2023/03/11 00:17:42;;;;;;;;;;;;;;;10.00;64.48;97434.31;5094628;28;20018;-64
2023/03/11 00:20:18;;;;;;;;;;;;;;;9.98;64.67;97441.19;5094080;28;19920;-64
2023/03/11 00:22:47;;;;;;;;;;;;;;;9.98;64.08;97451.38;5094089;28;19920;-64
2023/03/11 00:25:15;;;;;;;;;;;;;;;9.95;63.71;97441.28;5094363;28;20030;-64
2023/03/11 00:27:44;;;;;;;;;;;;;;;9.94;64.20;97434.50;5093890;28;19955;-64
2023/03/11 00:30:14;;;;;;;;;;;;;;;9.93;64.18;97432.84;5093979;28;19952;-64
2023/03/11 00:32:43;;;;;;;;;;;;;;;9.90;63.55;97435.50;5094063;28;19989;-64
2023/03/11 00:35:13;;;;;;;;;;;;;;;9.86;63.46;97451.78;5093895;28;19920;-64
2023/03/11 00:37:44;;;;;;;;;;;;;;;9.83;63.32;97447.63;5093907;28;19924;-64
2023/03/11 00:40:13;;;;;;;;;;;;;;;9.82;63.19;97445.09;5094840;28;20337;-64
2023/03/11 00:42:42;;;;;;;;;;;;;;;9.82;62.96;97440.00;5094085;28;20449;-64
2023/03/11 00:45:11;;;;;;;;;;;;;;;9.81;62.47;97446.81;5093852;28;19926;-64
2023/03/11 00:47:39;;;;;;;;;;;;;;;9.78;62.13;97454.59;5093649;28;19926;-64
2023/03/11 00:50:14;;;;;;;;;;;;;;;9.76;62.28;97445.31;5092814;28;19926;-64
2023/03/11 00:52:44;;;;;;;;;;;;;;;9.75;62.24;97448.75;5092920;28;20055;-64
2023/03/11 00:55:13;;;;;;;;;;;;;;;9.72;62.55;97441.19;5092962;28;19950;-64
2023/03/11 00:57:42;;;;;;;;;;;;;;;9.70;62.51;97445.50;5092420;28;19920;-63
2023/03/11 01:00:13;;;;;;;;;;;;;;;9.70;61.78;97440.41;5092527;28;19923;-64
2023/03/11 01:02:42;;;;;;;;;;;;;;;9.68;61.46;97437.09;5093975;28;20266;-64
2023/03/11 01:05:10;;;;;;;;;;;;;;;9.66;61.25;97426.13;5093637;28;19958;-64
2023/03/11 01:07:40;;;;;;;;;;;;;;;9.64;61.66;97435.53;5093765;28;19920;-64
2023/03/11 01:10:11;;;;;;;;;;;;;;;9.64;60.56;97455.91;5092747;28;19920;-64
2023/03/11 01:12:40;;;;;;;;;;;;;;;9.61;60.62;97445.81;5093901;28;20316;-64
2023/03/11 01:15:10;;;;;;;;;;;;;;;9.60;60.42;97439.09;5093450;28;19982;-64
2023/03/11 01:17:39;;;;;;;;;;;;;;;9.56;60.55;97437.50;5076052;28;20383;-64
2023/03/11 01:20:09;;;;;;;;;;;;;;;9.56;59.61;97442.59;5093822;28;19977;-64
2023/03/11 01:22:37;;;;;;;;;;;;;;;9.56;59.35;97442.59;5093814;28;19924;-64
2023/03/11 01:25:07;;;;;;;;;;;;;;;9.53;59.99;97442.69;5094045;28;20014;-64
2023/03/11 01:27:36;;;;;;;;;;;;;;;9.50;60.11;97437.72;5096827;28;20369;-64
2023/03/11 01:30:05;;;;;;;;;;;;;;;9.48;59.95;97436.94;5095839;28;19950;-63
2023/03/11 01:32:34;;;;;;;;;;;;;;;9.46;59.29;97444.59;5097041;28;19920;-63
2023/03/11 01:35:03;;;;;;;;;;;;;;;9.45;59.86;97441.22;5097354;28;19920;-64
2023/03/11 01:37:31;;;;;;;;;;;;;;;9.47;59.38;97445.44;5096920;28;19927;-64
2023/03/11 01:40:00;;;;;;;;;;;;;;;9.48;58.75;97450.47;5096790;28;19920;-64
2023/03/11 01:42:28;;;;;;;;;;;;;;;9.49;58.78;97446.22;5096839;28;19970;-64
2023/03/11 01:44:58;;;;;;;;;;;;;;;9.49;59.37;97451.31;5095626;28;19920;-64
2023/03/11 01:47:33;;;;;;;;;;;;;;;9.48;59.60;97449.66;5097323;28;20475;-64
2023/03/11 01:50:02;;;;;;;;;;;;;;;9.42;60.21;97464.25;5095473;28;19965;-64
2023/03/11 01:52:30;;;;;;;;;;;;;;;9.33;60.74;97456.88;5095466;28;19919;-64
2023/03/11 01:54:59;;;;;;;;;;;;;;;9.31;60.64;97466.28;5096603;28;19920;-64
2023/03/11 01:57:27;;;;;;;;;;;;;;;9.27;60.71;97457.09;5096882;28;19924;-64
2023/03/11 01:59:58;;;;;;;;;;;;;;;9.23;61.35;97460.63;5095274;28;19919;-64
2023/03/11 02:02:32;;;;;;;;;;;;;;;9.22;61.15;97451.31;5096836;28;20312;-64
2023/03/11 02:05:02;;;;;;;;;;;;;;;9.17;61.13;97435.34;5096524;28;19963;-64
2023/03/11 02:07:31;;;;;;;;;;;;;;;9.15;61.88;97449.84;5095140;28;20250;-64
2023/03/11 02:10:02;;;;;;;;;;;;;;;9.12;61.62;97437.19;5096292;28;19935;-64
2023/03/11 02:12:34;;;;;;;;;;;;;;;9.10;61.54;97428.78;5095094;28;19927;-64
2023/03/11 02:15:05;;;;;;;;;;;;;;;9.09;60.84;97424.59;5095030;28;19965;-64
2023/03/11 02:17:38;;;;;;;;;;;;;;;9.07;60.58;97441.59;5096250;28;19958;-64
2023/03/11 02:20:16;;;;;;;;;;;;;;;9.08;59.79;97425.47;5094931;28;19974;-63
2023/03/11 02:22:45;;;;;;;;;;;;;;;9.08;59.41;97439.88;5095253;28;20357;-63
2023/03/11 02:25:19;;;;;;;;;;;;;;;9.05;59.55;97443.38;5096045;28;19920;-63
2023/03/11 02:27:52;;;;;;;;;;;;;;;9.04;59.17;97439.16;5095095;28;19924;-64
2023/03/11 02:30:24;;;;;;;;;;;;;;;9.00;59.07;97450.28;5095953;28;19920;-63
2023/03/11 02:32:53;;;;;;;;;;;;;;;8.98;59.44;97458.84;5094686;28;19920;-63
2023/03/11 02:35:22;;;;;;;;;;;;;;;8.94;58.85;97467.47;5095843;28;19920;-63
2023/03/11 02:37:53;;;;;;;;;;;;;;;8.90;58.63;97470.97;5095657;28;19923;-63
2023/03/11 02:40:33;;;;;;;;;;;;;;;8.91;58.20;97473.47;5095732;28;19920;-63
2023/03/11 02:43:05;;;;;;;;;;;;;;;8.94;57.77;97496.28;5094891;28;20271;-63
2023/03/11 02:45:35;;;;;;;;;;;;;;;8.89;56.85;97508.28;5094496;28;19926;-63
2023/03/11 02:48:04;;;;;;;;;;;;;;;8.86;57.84;97505.00;5095676;28;19981;-63
2023/03/11 02:50:36;;;;;;;;;;;;;;;8.83;57.33;97500.03;5094288;28;19959;-63
2023/03/11 02:53:05;;;;;;;;;;;;;;;8.78;57.73;97495.06;5095514;28;19920;-63
2023/03/11 02:55:34;;;;;;;;;;;;;;;8.72;58.51;97492.69;5094267;28;19926;-63
2023/03/11 02:58:04;;;;;;;;;;;;;;;8.64;58.19;97505.63;5094743;28;19926;-63
2023/03/11 03:00:33;;;;;;;;;;;;;;;8.58;58.18;97510.03;5095297;28;19919;-63
2023/03/11 03:03:06;;;;;;;;;;;;;;;8.54;58.21;97518.63;5095320;28;19921;-63
2023/03/11 03:05:37;;;;;;;;;;;;;;;8.49;58.83;97500.13;5095322;28;19949;-63
2023/03/11 03:08:05;;;;;;;;;;;;;;;8.44;58.47;97499.44;5093927;28;19920;-63
2023/03/11 03:10:34;;;;;;;;;;;;;;;8.35;58.21;97497.13;5093984;28;19963;-63
2023/03/11 03:13:05;;;;;;;;;;;;;;;8.24;58.56;97489.75;5095442;28;19959;-63
2023/03/11 03:15:33;;;;;;;;;;;;;;;8.13;58.51;97492.56;5093762;28;19927;-63
2023/03/11 03:18:02;;;;;;;;;;;;;;;8.03;59.38;97493.72;5094488;28;20370;-63
2023/03/11 03:20:31;;;;;;;;;;;;;;;7.94;60.09;97505.81;5094042;28;19920;-63
2023/03/11 03:23:02;;;;;;;;;;;;;;;7.85;60.12;97501.78;5094899;28;19920;-63
2023/03/11 03:25:32;;;;;;;;;;;;;;;7.81;60.59;97515.44;5094980;28;19920;-63
2023/03/11 03:28:06;;;;;;;;;;;;;;;7.78;59.64;97500.28;5094846;28;19956;-64
2023/03/11 03:30:38;;;;;;;;;;;;;;;7.78;59.45;97500.28;5095206;28;19932;-63
2023/03/11 03:33:07;;;;;;;;;;;;;;;7.76;59.71;97499.47;5093704;28;19920;-63
2023/03/11 03:35:36;;;;;;;;;;;;;;;7.75;60.01;97489.38;5093525;28;19969;-63
2023/03/11 03:38:09;;;;;;;;;;;;;;;7.70;59.75;97501.34;5094690;28;19924;-63
2023/03/11 03:40:39;;;;;;;;;;;;;;;7.65;60.22;97493.84;5094980;28;20026;-64
2023/03/11 03:43:10;;;;;;;;;;;;;;;7.62;59.69;97483.75;5094500;28;19924;-63
2023/03/11 03:45:40;;;;;;;;;;;;;;;7.56;59.42;97499.13;5094899;28;19926;-63
2023/03/11 03:48:09;;;;;;;;;;;;;;;7.51;58.39;97495.84;5093069;28;20267;-63
2023/03/11 03:50:42;;;;;;;;;;;;;;;7.45;57.55;97501.09;5094477;28;19920;-63
2023/03/11 03:53:14;;;;;;;;;;;;;;;7.40;57.25;97508.81;5094693;28;20365;-64
2023/03/11 03:55:43;;;;;;;;;;;;;;;7.38;57.63;97524.94;5094678;28;19927;-63
2023/03/11 03:58:14;;;;;;;;;;;;;;;7.33;57.31;97516.59;5093520;28;19985;-63
2023/03/11 04:00:44;;;;;;;;;;;;;;;7.29;57.11;97504.84;5094364;28;19920;-63
2023/03/11 04:03:13;;;;;;;;;;;;;;;7.24;57.24;97521.88;5093129;28;19953;-63
2023/03/11 04:05:50;;;;;;;;;;;;;;;7.14;58.10;97543.22;5094295;28;19924;-63
2023/03/11 04:08:20;;;;;;;;;;;;;;;6.96;60.04;97541.09;5094371;28;19920;-63
2023/03/11 04:10:56;;;;;;;;;;;;;;;6.68;61.78;97545.88;5093010;28;19966;-63
2023/03/11 04:13:27;;;;;;;;;;;;;;;6.43;63.75;97550.56;5094463;28;20362;-63
2023/03/11 04:15:56;;;;;;;;;;;;;;;6.28;64.48;97545.81;5094236;28;19920;-63
2023/03/11 04:18:24;;;;;;;;;;;;;;;6.14;64.72;97547.75;5092918;28;19967;-64
2023/03/11 04:20:55;;;;;;;;;;;;;;;5.97;63.70;97552.28;5094061;28;19974;-63
2023/03/11 04:23:24;;;;;;;;;;;;;;;5.86;62.03;97541.47;5092872;28;19920;-63
2023/03/11 04:25:54;;;;;;;;;;;;;;;5.79;60.38;97560.13;5094095;28;20093;-63
2023/03/11 04:28:23;;;;;;;;;;;;;;;5.66;60.40;97562.03;5092747;28;19920;-63
2023/03/11 04:30:53;;;;;;;;;;;;;;;5.61;60.15;97562.94;5092812;28;20377;-63
2023/03/11 04:33:22;;;;;;;;;;;;;;;5.57;60.27;97573.97;5094277;28;19924;-63
2023/03/11 04:35:51;;;;;;;;;;;;;;;5.52;59.73;97593.47;5093250;28;20297;-64
2023/03/11 04:38:20;;;;;;;;;;;;;;;5.45;59.28;97589.34;5092666;28;20301;-64
2023/03/11 04:40:48;;;;;;;;;;;;;;;5.34;59.32;97597.06;5092747;28;20378;-63
2023/03/11 04:43:17;;;;;;;;;;;;;;;5.25;59.42;97587.09;5094380;28;19920;-64
2023/03/11 04:45:50;;;;;;;;;;;;;;;5.20;59.70;97604.84;5093850;28;19920;-63
2023/03/11 04:48:20;;;;;;;;;;;;;;;5.15;60.04;97611.66;5092626;28;19981;-63
2023/03/11 04:50:49;;;;;;;;;;;;;;;5.09;60.34;97614.25;5092627;28;19969;-64
2023/03/11 04:53:18;;;;;;;;;;;;;;;5.08;60.34;97620.16;5092857;28;19920;-65
2023/03/11 04:55:47;;;;;;;;;;;;;;;5.04;60.91;97622.75;5094006;28;20285;-63
2023/03/11 04:58:15;;;;;;;;;;;;;;;4.98;61.15;97633.75;5092550;28;19927;-63
2023/03/11 05:00:46;;;;;;;;;;;;;;;4.92;61.56;97623.72;5093242;28;19920;-62
2023/03/11 05:03:16;;;;;;;;;;;;;;;4.90;61.65;97632.16;5097870;28;20035;-63
2023/03/11 05:05:46;;;;;;;;;;;;;;;4.87;61.54;97634.75;5096359;28;19927;-63
2023/03/11 05:08:18;;;;;;;;;;;;;;;4.85;61.64;97661.72;5097544;28;19920;-63
2023/03/11 05:10:47;;;;;;;;;;;;;;;4.81;61.85;97650.81;5096268;28;20011;-63
2023/03/11 05:13:16;;;;;;;;;;;;;;;4.83;62.21;97658.34;5097424;28;19926;-63
2023/03/11 05:15:44;;;;;;;;;;;;;;;4.83;62.18;97659.19;5095987;28;19955;-63
2023/03/11 05:18:13;;;;;;;;;;;;;;;4.82;62.26;97665.13;5096158;28;19927;-63
2023/03/11 05:20:42;;;;;;;;;;;;;;;4.82;62.42;97651.66;5096088;28;19920;-63
2023/03/11 05:23:13;;;;;;;;;;;;;;;4.81;62.34;97649.97;5097393;28;19947;-64
2023/03/11 05:25:43;;;;;;;;;;;;;;;4.79;62.50;97652.50;5096013;28;19950;-64
2023/03/11 05:28:12;;;;;;;;;;;;;;;4.77;62.52;97654.22;5097053;28;19955;-63
2023/03/11 05:30:47;;;;;;;;;;;;;;;4.84;62.07;97645.72;5097139;28;19920;-63
2023/03/11 05:33:17;;;;;;;;;;;;;;;4.85;62.58;97634.75;5097473;28;20385;-63
2023/03/11 05:35:47;;;;;;;;;;;;;;;4.82;62.60;97637.34;5097195;28;20282;-63
2023/03/11 05:38:17;;;;;;;;;;;;;;;4.77;63.72;97628.97;5097588;28;19920;-63
2023/03/11 05:40:46;;;;;;;;;;;;;;;4.65;65.03;97624.03;5097523;28;19965;-63
2023/03/11 05:43:14;;;;;;;;;;;;;;;4.55;66.45;97622.44;5096861;28;19950;-63
2023/03/11 05:45:48;;;;;;;;;;;;;;;4.47;67.33;97624.22;5096836;28;19974;-63
2023/03/11 05:48:17;;;;;;;;;;;;;;;4.47;68.10;97625.06;5095868;28;19966;-63
2023/03/11 05:50:46;;;;;;;;;;;;;;;4.49;68.71;97627.56;5095554;28;20381;-63
2023/03/11 05:53:14;;;;;;;;;;;;;;;4.44;68.73;97629.31;5095805;28;20289;-63
2023/03/11 05:55:44;;;;;;;;;;;;;;;4.40;69.45;97642.78;5095724;28;19920;-63
2023/03/11 05:58:13;;;;;;;;;;;;;;;4.44;69.59;97644.47;5096866;28;20273;-63
2023/03/11 06:00:41;;;;;;;;;;;;;;;4.42;69.63;97657.09;5096537;28;19919;-63
2023/03/11 06:03:10;;;;;;;;;;;;;;;4.41;69.21;97659.63;5095323;28;19959;-63
2023/03/11 06:05:44;;;;;;;;;;;;;;;4.47;69.27;97677.25;5095169;28;19924;-63
2023/03/11 06:08:13;;;;;;;;;;;;;;;4.47;69.25;97674.72;5095537;28;19919;-63
2023/03/11 06:10:42;;;;;;;;;;;;;;;4.39;68.52;97672.25;5094985;28;19920;-63
2023/03/11 06:13:12;;;;;;;;;;;;;;;4.34;68.82;97679.06;5094934;28;20026;-63
2023/03/11 06:15:48;;;;;;;;;;;;;;;4.33;69.30;97686.63;5096033;28;19924;-64
2023/03/11 06:18:17;;;;;;;;;;;;;;;4.21;70.25;97687.56;5095223;28;19920;-64
2023/03/11 06:20:46;;;;;;;;;;;;;;;4.10;70.25;97688.50;5095258;28;19920;-63
2023/03/11 06:23:14;;;;;;;;;;;;;;;3.99;70.66;97671.75;5094853;28;20395;-63
2023/03/11 06:25:42;;;;;;;;;;;;;;;3.97;71.32;97683.53;5094920;28;19973;-64
2023/03/11 06:28:13;;;;;;;;;;;;;;;4.00;71.60;97677.63;5095085;28;19926;-64
2023/03/11 06:30:44;;;;;;;;;;;;;;;4.00;71.72;97672.59;5095903;28;19920;-64
2023/03/11 06:33:15;;;;;;;;;;;;;;;3.97;71.58;97673.44;5096185;28;19945;-64
2023/03/11 06:35:44;;;;;;;;;;;;;;;4.00;71.45;97682.69;5094974;28;19943;-64
2023/03/11 06:38:12;;;;;;;;;;;;;;;4.04;70.82;97700.31;5096071;28;19919;-64
2023/03/11 06:40:41;;;;;;;;;;;;;;;4.02;70.95;97707.06;5096100;28;19930;-64
2023/03/11 06:43:09;;;;;;;;;;;;;;;4.00;70.50;97718.84;5095876;28;19946;-64
2023/03/11 06:45:42;;;;;;;;;;;;;;;3.98;70.90;97720.53;5095634;28;19928;-64
2023/03/11 06:48:11;;;;;;;;;;;;;;;3.93;71.07;97732.38;5094801;28;19928;-63
2023/03/11 06:50:40;;;;;;;;;;;;;;;3.81;71.65;97740.00;5094112;28;19920;-64
2023/03/11 06:53:09;;;;;;;;;;;;;;;3.74;72.00;97755.97;5094596;28;19926;-64
2023/03/11 06:55:38;;;;;;;;;;;;;;;3.65;72.50;97756.03;5093997;28;19966;-65
2023/03/11 06:58:07;;;;;;;;;;;;;;;3.57;73.95;97752.72;5094171;28;19920;-65
2023/03/11 07:00:37;;;;;;;;;;;;;;;3.55;74.51;97764.47;5094381;28;20362;-65
2023/03/11 07:03:06;;;;;;;;;;;;;;;3.54;74.88;97767.84;5094126;28;19926;-65
2023/03/11 07:05:35;;;;;;;;;;;;;;;3.52;74.39;97774.59;5094696;28;19924;-65
2023/03/11 07:08:08;;;;;;;;;;;;;;;3.59;74.71;97780.44;5095499;28;20247;-65
2023/03/11 07:10:36;;;;;;;;;;;;;;;3.65;74.90;97785.44;5094061;28;19924;-65
2023/03/11 07:13:05;;;;;;;;;;;;;;;3.72;74.77;97787.13;5095336;28;19943;-65
2023/03/11 07:15:34;;;;;;;;;;;;;;;3.78;74.84;97792.97;5094971;28;20008;-65
2023/03/11 07:18:03;;;;;;;;;;;;;;;3.82;74.87;97802.19;5093759;28;20015;-65
2023/03/11 07:20:36;;;;;;;;;;;;;;;3.90;75.05;97803.00;5093794;28;19924;-65
2023/03/11 07:23:06;;;;;;;;;;;;;;;3.94;74.91;97807.19;5094426;28;20366;-65
2023/03/11 07:25:34;;;;;;;;;;;;;;;4.01;75.20;97803.78;5094948;28;19926;-66
2023/03/11 07:28:03;;;;;;;;;;;;;;;4.06;74.69;97814.69;5095083;28;19962;-66
2023/03/11 07:30:33;;;;;;;;;;;;;;;4.01;74.47;97800.41;5094856;28;19927;-65
2023/03/11 07:33:01;;;;;;;;;;;;;;;4.03;74.15;97809.66;5094800;28;20019;-65
2023/03/11 07:35:30;;;;;;;;;;;;;;;4.07;73.86;97816.38;5094532;28;19974;-65
2023/03/11 07:38:00;;;;;;;;;;;;;;;4.11;73.98;97808.78;5094613;28;19960;-65
2023/03/11 07:40:29;;;;;;;;;;;;;;;4.14;73.72;97817.19;5094810;28;20373;-66
2023/03/11 07:42:58;;;;;;;;;;;;;;;4.23;73.48;97811.22;5095172;28;20019;-65
2023/03/11 07:45:26;;;;;;;;;;;;;;;4.33;72.95;97822.97;5094602;28;19927;-66
2023/03/11 07:47:55;;;;;;;;;;;;;;;4.31;72.73;97837.28;5094289;28;19920;-66
2023/03/11 07:50:23;;;;;;;;;;;;;;;4.24;72.38;97828.06;5094386;28;19920;-66
2023/03/11 07:52:52;;;;;;;;;;;;;;;4.14;72.24;97841.59;5094657;28;19923;-64
2023/03/11 07:55:22;;;;;;;;;;;;;;;4.08;71.86;97848.34;5094386;28;20381;-66
2023/03/11 07:57:50;;;;;;;;;;;;;;;4.06;72.87;97844.13;5094389;28;19920;-66
2023/03/11 08:00:19;;;;;;;;;;;;;;;4.07;72.84;97851.72;5094526;28;20012;-66
2023/03/11 08:02:48;;;;;;;;;;;;;;;4.11;72.98;97851.69;5094562;28;20011;-65
2023/03/11 08:05:17;;;;;;;;;;;;;;;4.11;73.37;97856.72;5094521;28;19920;-63
2023/03/11 08:07:45;;;;;;;;;;;;;;;4.13;73.69;97860.94;5094158;28;20018;-67
2023/03/11 08:10:14;;;;;;;;;;;;;;;4.14;74.07;97864.28;5094005;28;19920;-65
2023/03/11 08:12:44;;;;;;;;;;;;;;;4.19;74.56;97860.06;5094060;28;19931;-65
2023/03/11 08:15:12;;;;;;;;;;;;;;;4.18;75.26;97860.91;5093962;28;19970;-66
2023/03/11 08:17:41;;;;;;;;;;;;;;;4.11;75.10;97856.72;5092988;28;19920;-65
2023/03/11 08:20:11;;;;;;;;;;;;;;;4.01;75.84;97861.81;5094095;28;19920;-65
2023/03/11 08:22:39;;;;;;;;;;;;;;;3.98;75.64;97871.94;5094594;28;19962;-65
2023/03/11 08:25:24;;;;;;;;;;;;;;;3.99;75.95;97873.63;5094250;28;19982;-65
2023/03/11 08:27:54;;;;;;;;;;;;;;;3.83;76.37;97876.19;5094564;28;20010;-64
2023/03/11 08:30:23;;;;;;;;;;;;;;;3.74;76.96;97882.09;5093913;28;19927;-64
2023/03/11 08:32:52;;;;;;;;;;;;;;;3.80;76.47;97883.78;5093989;28;20002;-65
2023/03/11 08:35:20;;;;;;;;;;;;;;;3.73;77.45;97890.53;5095683;28;19920;-65
2023/03/11 08:37:49;;;;;;;;;;;;;;;3.72;77.20;97883.78;5098401;28;20326;-65
2023/03/11 08:40:17;;;;;;;;;;;;;;;3.64;77.94;97894.75;5097994;28;19943;-64
2023/03/11 08:42:46;;;;;;;;;;;;;;;3.69;78.01;97893.91;5098536;28;20003;-65
2023/03/11 08:45:16;;;;;;;;;;;;;;;3.78;79.00;97890.50;5097987;28;19970;-64
2023/03/11 08:47:44;;;;;;;;;;;;;;;3.69;78.85;97888.88;5097850;28;19920;-64
2023/03/11 08:50:14;;;;;;;;;;;;;;;3.65;79.14;97893.91;5097866;28;19928;-64
2023/03/11 08:52:42;;;;;;;;;;;;;;;3.65;78.79;97897.25;5097716;28;19930;-64
2023/03/11 08:55:13;;;;;;;;;;;;;;;3.67;79.46;97889.72;5097781;28;19919;-64
2023/03/11 08:57:41;;;;;;;;;;;;;;;3.73;79.46;97905.66;5097769;28;20350;-64
2023/03/11 09:00:12;;;;;;;;;;;;;;;3.70;79.66;97903.13;5101531;28;19920;-64
2023/03/11 09:02:42;;;;;;;;;;;;;;;3.70;79.55;97905.66;5117467;28;20006;-64
2023/03/11 09:05:11;;;;;;;;;;;;;;;3.68;79.81;97912.41;5118030;28;19965;-65
2023/03/11 09:07:40;;;;;;;;;;;;;;;3.64;79.89;97908.22;5117966;28;19959;-65
2023/03/11 09:10:09;;;;;;;;;;;;;;;3.66;79.39;97914.09;5117540;27;19919;-64
2023/03/11 09:12:37;;;;;;;;;;;;;;;3.70;79.41;97920.78;5117651;27;19970;-65
2023/03/11 09:15:06;;;;;;;;;;;;;;;3.72;79.26;97914.06;5116513;28;20030;-65
2023/03/11 09:17:34;;;;;;;;;;;;;;;3.65;79.18;97930.06;5117590;28;19927;-64
2023/03/11 09:20:05;;;;;;;;;;;;;;;3.67;79.45;97930.88;5118038;28;20442;-64
2023/03/11 09:22:33;;;;;;;;;;;;;;;3.65;79.65;97937.63;5117920;28;19924;-64
2023/03/11 09:25:01;;;;;;;;;;;;;;;3.69;79.55;97939.31;5118117;28;20263;-64
2023/03/11 09:27:30;;;;;;;;;;;;;;;3.75;79.34;97948.53;5115249;28;19920;-64
2023/03/11 09:29:58;;;;;;;;;;;;;;;3.77;79.53;97947.69;5117458;28;19920;-64
2023/03/11 09:32:27;;;;;;;;;;;;;;;3.78;78.95;97954.41;5117306;28;19919;-64
2023/03/11 09:34:56;;;;;;;;;;;;;;;3.76;79.54;97950.22;5117324;28;19920;-64
2023/03/11 09:37:29;;;;;;;;;;;;;;;3.79;78.94;97945.19;5117294;28;19919;-64
2023/03/11 09:39:57;;;;;;;;;;;;;;;3.81;79.08;97956.94;5117239;28;19920;-65
2023/03/11 09:42:29;;;;;;;;;;;;;;;3.84;78.20;97954.41;5117177;28;19949;-64
2023/03/11 09:45:02;;;;;;;;;;;;;;;3.89;78.38;97959.44;5117174;28;19927;-65
2023/03/11 09:47:37;;;;;;;;;;;;;;;3.89;78.50;97946.81;5116347;28;19951;-65
2023/03/11 09:50:17;;;;;;;;;;;;;;;3.91;78.08;97966.16;5117751;28;19926;-64
2023/03/11 09:52:52;;;;;;;;;;;;;;;3.98;78.18;97967.81;5117153;27;19919;-64
2023/03/11 09:55:32;;;;;;;;;;;;;;;3.99;78.28;97963.63;5118050;28;19919;-65
2023/03/11 09:58:02;;;;;;;;;;;;;;;4.02;77.93;97977.09;5116969;28;20357;-64
2023/03/11 10:00:32;;;;;;;;;;;;;;;4.11;77.72;97982.94;5116908;28;19920;-64
2023/03/11 10:03:02;;;;;;;;;;;;;;;4.15;77.54;97982.09;5117176;28;20351;-64
2023/03/11 10:05:31;;;;;;;;;;;;;;;4.21;77.10;97999.72;5117168;28;20365;-64
2023/03/11 10:08:03;;;;;;;;;;;;;;;4.29;76.54;97998.88;5116869;28;19920;-64
2023/03/11 10:10:39;;;;;;;;;;;;;;;4.32;76.13;98003.09;5116775;28;19919;-64
2023/03/11 10:13:12;;;;;;;;;;;;;;;4.36;76.28;98004.75;5117010;28;20017;-64
2023/03/11 10:15:47;;;;;;;;;;;;;;;4.40;74.99;98001.34;5115524;28;19941;-65
2023/03/11 10:18:37;;;;;;;;;;;;;;;4.36;74.65;98002.22;5116624;28;19951;-65
2023/03/11 10:21:10;;;;;;;;;;;;;;;4.38;74.47;98015.69;5111047;28;19969;-65
2023/03/11 10:23:50;;;;;;;;;;;;;;;4.39;74.31;98019.91;5116685;28;20014;-65
2023/03/11 10:26:20;;;;;;;;;;;;;;;4.40;73.68;98021.56;5115576;28;19924;-65
2023/03/11 10:28:52;;;;;;;;;;;;;;;4.45;73.52;98014.81;5116854;28;20022;-65
2023/03/11 10:31:27;;;;;;;;;;;;;;;4.47;73.18;98040.88;5116350;28;19920;-64
2023/03/11 10:33:58;;;;;;;;;;;;;;;4.53;72.78;98038.38;5116304;27;19923;-64
2023/03/11 10:36:30;;;;;;;;;;;;;;;4.51;72.50;98033.28;5115736;28;19927;-65
2023/03/11 10:39:01;;;;;;;;;;;;;;;4.49;71.93;98051.81;5116322;28;19989;-64
2023/03/11 10:41:32;;;;;;;;;;;;;;;4.48;71.52;98043.44;5116073;28;19968;-65
2023/03/11 10:44:04;;;;;;;;;;;;;;;4.56;71.67;98053.47;5116765;28;19969;-65
2023/03/11 10:46:32;;;;;;;;;;;;;;;4.55;70.90;98045.09;5115889;28;20010;-64
2023/03/11 10:49:00;;;;;;;;;;;;;;;4.56;71.17;98058.53;5115013;28;19951;-65
2023/03/11 10:51:34;;;;;;;;;;;;;;;4.56;70.93;98058.53;5115640;28;19965;-65
2023/03/11 10:54:04;;;;;;;;;;;;;;;4.56;70.66;98053.47;5116208;28;19919;-65
2023/03/11 10:56:34;;;;;;;;;;;;;;;4.52;70.61;98056.88;5115990;28;20369;-65
2023/03/11 10:59:03;;;;;;;;;;;;;;;4.52;70.75;98051.81;5116015;28;19919;-64
2023/03/11 11:01:31;;;;;;;;;;;;;;;4.55;70.24;98057.72;5115636;28;20419;-65
2023/03/11 11:04:01;;;;;;;;;;;;;;;4.64;70.29;98066.94;5115554;28;19920;-65
2023/03/11 11:06:31;;;;;;;;;;;;;;;4.74;70.23;98064.38;5115917;28;19919;-65
2023/03/11 11:09:14;;;;;;;;;;;;;;;4.78;69.91;98066.88;5115812;28;19919;-65
2023/03/11 11:11:43;;;;;;;;;;;;;;;4.76;69.38;98064.38;5115701;28;19955;-65
2023/03/11 11:14:11;;;;;;;;;;;;;;;4.79;68.76;98071.09;5112947;28;19919;-65
2023/03/11 11:16:40;;;;;;;;;;;;;;;4.87;68.41;98064.34;5115442;28;19926;-65
2023/03/11 11:19:10;;;;;;;;;;;;;;;4.87;68.29;98072.72;5115269;28;19920;-65
2023/03/11 11:21:39;;;;;;;;;;;;;;;4.85;67.35;98087.06;5115772;28;19927;-65
2023/03/11 11:24:18;;;;;;;;;;;;;;;4.80;67.36;98096.34;5115531;28;20347;-65
2023/03/11 11:26:58;;;;;;;;;;;;;;;4.84;67.46;98100.56;5115262;28;20428;-65
2023/03/11 11:29:26;;;;;;;;;;;;;;;4.81;67.24;98100.56;5115528;28;20261;-65
2023/03/11 11:32:11;;;;;;;;;;;;;;;4.82;66.76;98102.28;5115176;28;20018;-65
2023/03/11 11:34:39;;;;;;;;;;;;;;;4.80;67.02;98114.03;5115013;28;19927;-65
2023/03/11 11:37:11;;;;;;;;;;;;;;;4.76;66.67;98109.84;5115381;28;19949;-65
2023/03/11 11:39:50;;;;;;;;;;;;;;;4.72;66.83;98111.56;5114934;28;20006;-66
2023/03/11 11:42:20;;;;;;;;;;;;;;;4.78;66.78;98118.25;5115237;28;20422;-65
2023/03/11 11:44:51;;;;;;;;;;;;;;;4.74;66.79;98129.22;5115187;28;19919;-65
2023/03/11 11:47:21;;;;;;;;;;;;;;;4.66;66.55;98130.94;5115004;28;19924;-65
2023/03/11 11:49:53;;;;;;;;;;;;;;;4.63;67.08;98141.06;5115244;28;19927;-65
2023/03/11 11:52:24;;;;;;;;;;;;;;;4.62;67.41;98134.31;5114521;28;19924;-65
2023/03/11 11:54:58;;;;;;;;;;;;;;;4.66;67.13;98135.97;5114783;28;19966;-64
2023/03/11 11:57:26;;;;;;;;;;;;;;;4.70;67.26;98147.78;5114764;28;19969;-65
2023/03/11 11:59:55;;;;;;;;;;;;;;;4.67;67.37;98148.63;5114568;28;19919;-65
2023/03/11 12:02:37;;;;;;;;;;;;;;;4.68;67.56;98141.88;5114553;28;19920;-65
2023/03/11 12:05:09;;;;;;;;;;;;;;;4.69;67.82;98156.19;5114946;28;19920;-65
2023/03/11 12:07:48;;;;;;;;;;;;;;;4.63;67.74;98151.16;5114600;28;19919;-64
2023/03/11 12:10:22;;;;;;;;;;;;;;;4.64;67.75;98168.84;5114070;28;19923;-64
2023/03/11 12:13:04;;;;;;;;;;;;;;;4.64;67.83;98157.88;5114303;28;20005;-64
2023/03/11 12:15:38;;;;;;;;;;;;;;;4.62;68.22;98147.78;5113996;28;19988;-64
2023/03/11 12:18:11;;;;;;;;;;;;;;;4.70;68.38;98148.59;5112412;28;19931;-64
2023/03/11 12:20:42;;;;;;;;;;;;;;;4.80;68.46;98159.53;5114320;28;19969;-65
2023/03/11 12:23:17;;;;;;;;;;;;;;;4.83;68.73;98144.34;5114432;28;19919;-65
2023/03/11 12:25:56;;;;;;;;;;;;;;;4.90;68.62;98146.03;5114215;28;19928;-64
2023/03/11 12:28:30;;;;;;;;;;;;;;;4.96;68.76;98140.97;5114986;28;20023;-64
2023/03/11 12:31:00;;;;;;;;;;;;;;;5.01;68.58;98144.31;5114562;28;19963;-64
2023/03/11 12:33:32;;;;;;;;;;;;;;;5.09;68.83;98141.72;5114280;28;19919;-65
2023/03/11 12:36:00;;;;;;;;;;;;;;;5.23;68.78;98145.06;5113231;28;20353;-64
2023/03/11 12:38:32;;;;;;;;;;;;;;;5.30;68.31;98152.59;5114577;28;19920;-65
2023/03/11 12:41:04;;;;;;;;;;;;;;;5.27;68.33;98162.75;5114250;28;19927;-65
2023/03/11 12:43:45;;;;;;;;;;;;;;;5.31;68.46;98164.41;5113424;28;19919;-65
2023/03/11 12:46:16;;;;;;;;;;;;;;;5.41;68.54;98176.16;5114179;28;19965;-65
2023/03/11 12:48:45;;;;;;;;;;;;;;;5.46;68.37;98173.63;5114402;28;20014;-64
2023/03/11 12:51:36;;;;;;;;;;;;;;;5.53;68.45;98176.94;5113090;28;20471;-65
2023/03/11 12:54:19;;;;;;;;;;;;;;;5.51;68.41;98186.25;5109026;28;20362;-64
2023/03/11 12:56:54;;;;;;;;;;;;;;;5.59;68.62;98179.47;5113978;28;20010;-66
2023/03/11 12:59:42;;;;;;;;;;;;;;;5.67;68.48;98192.91;5114321;28;19942;-64
2023/03/11 13:02:23;;;;;;;;;;;;;;;5.71;68.64;98192.06;5112959;28;20377;-64
2023/03/11 13:04:56;;;;;;;;;;;;;;;5.73;68.33;98203.00;5112681;28;19920;-65
2023/03/11 13:07:40;;;;;;;;;;;;;;;5.86;68.27;98222.34;5113918;28;19920;-65
2023/03/11 13:10:14;;;;;;;;;;;;;;;6.04;68.43;98219.72;5113960;28;19927;-64
2023/03/11 13:12:45;;;;;;;;;;;;;;;6.37;68.39;98227.09;5113713;28;19920;-65
2023/03/11 13:15:31;;;;;;;;;;;;;;;6.45;68.16;98232.94;5113998;28;19920;-65